1852 NOT_NAMED (1852001S12077)


IBTrACS version v04r00. Visit IBTrACS website for data access.
Please direct all questions to the IBTrACS Q and A forum

Storm track - Intensity - Wind Radii - Intensity Data - Source Data - All data

Summary Information

Storm ID 1852001S12077
Start Jan 1 06Z
End Jan 10 06Z
ATCF IDs
Track status Best track data.

Storm track plot

Map of storm track

Intensity plots

No Intensity information for this storm


Radial wind information

No radial wind information for this storm


Position and Intensity Table

BASIN ISO_TIME_________ NATURE LAT LON
degrees north degrees east
SI 1852-01-01 06:00:00 NR -12.20 77.30
SI 09:00:00 NR -12.21 77.32
SI 12:00:00 NR -12.22 77.32
SI 15:00:00 NR -12.24 77.30
SI 18:00:00 NR -12.27 77.24
SI 21:00:00 NR -12.31 77.12
SI 1852-01-02 00:00:00 NR -12.38 76.93
SI 03:00:00 NR -12.48 76.66
SI 06:00:00 NR -12.60 76.30
SI 09:00:00 NR -12.75 75.83
SI 12:00:00 NR -12.93 75.27
SI 15:00:00 NR -13.14 74.62
SI 18:00:00 NR -13.36 73.92
SI 21:00:00 NR -13.59 73.17
SI 1852-01-03 00:00:00 NR -13.82 72.39
SI 03:00:00 NR -14.06 71.59
SI 06:00:00 NR -14.30 70.80
SI 09:00:00 NR -14.51 70.07
SI 12:00:00 NR -14.72 69.32
SI 15:00:00 NR -14.93 68.57
SI 18:00:00 NR -15.14 67.82
SI 21:00:00 NR -15.35 67.07
SI 1852-01-04 00:00:00 NR -15.57 66.33
SI 03:00:00 NR -15.78 65.61
SI 06:00:00 NR -16.00 64.90
SI 09:00:00 NR -16.21 64.23
SI 12:00:00 NR -16.42 63.57
SI 15:00:00 NR -16.64 62.93
SI 18:00:00 NR -16.86 62.30
SI 21:00:00 NR -17.08 61.68
SI 1852-01-05 00:00:00 NR -17.31 61.05
SI 03:00:00 NR -17.55 60.43
SI 06:00:00 NR -17.80 59.80
SI 09:00:00 NR -18.04 59.14
SI 12:00:00 NR -18.30 58.47
SI 15:00:00 NR -18.56 57.80
SI 18:00:00 NR -18.82 57.12
SI 21:00:00 NR -19.10 56.46
SI 1852-01-06 00:00:00 NR -19.39 55.79
SI 03:00:00 NR -19.69 55.14
SI 06:00:00 NR -20.00 54.50
SI 09:00:00 NR -20.29 53.82
SI 12:00:00 NR -20.59 53.13
SI 15:00:00 NR -20.91 52.47
SI 18:00:00 NR -21.24 51.82
SI 21:00:00 NR -21.59 51.22
SI 1852-01-07 00:00:00 NR -21.96 50.65
SI 03:00:00 NR -22.37 50.14
SI 06:00:00 NR -22.80 49.70
SI 09:00:00 NR -23.33 49.32
SI 12:00:00 NR -23.91 49.00
SI 15:00:00 NR -24.51 48.73
SI 18:00:00 NR -25.11 48.52
SI 21:00:00 NR -25.70 48.36
SI 1852-01-08 00:00:00 NR -26.26 48.24
SI 03:00:00 NR -26.77 48.16
SI 06:00:00 NR -27.20 48.10
SI 09:00:00 NR -27.50 48.03
SI 12:00:00 NR -27.74 48.01
SI 15:00:00 NR -27.92 48.01
SI 18:00:00 NR -28.06 48.04
SI 21:00:00 NR -28.17 48.10
SI 1852-01-09 00:00:00 NR -28.25 48.16
SI 03:00:00 NR -28.32 48.23
SI 06:00:00 NR -28.40 48.30
SI 09:00:00 NR -28.49 48.36
SI 12:00:00 NR -28.58 48.42
SI 15:00:00 NR -28.69 48.48
SI 18:00:00 NR -28.80 48.53
SI 21:00:00 NR -28.92 48.57
SI 1852-01-10 00:00:00 NR -29.04 48.62
SI 03:00:00 NR -29.17 48.66
SI 06:00:00 NR -29.30 48.70

Source Information

Agency Information
USA
TOKYO
CMA
HKO
NEWDELHI
REUNION WMO-Best-Tracks.txt:Line=50:xxxx852008
BOM
NADI
WELLINGTON
DS824
TD9636
TD9635
NEUMANN
MLC

All available IBTrACS Data

SEASON BASIN SUBBASIN ISO_TIME_________ NATURE LAT LON WMO AGENCY DIST2LAND LANDFALL IFLAG USA SSHS REUNION LAT REUNION LON REUNION TYPE REUNION TNUM STORM SPEED STORM DIR
Year degrees north degrees east km km 1 degrees north degrees east 1 kts degrees
1852 SI MM 1852-01-01 06:00:00 NR -12.20 77.30 reunion 2060 2060 _____O________ -1 -12.20 77.30 99 9.90 0 0
1852 SI MM 09:00:00 NR -12.21 77.32 2060 2060 _____P________ -1 -12.21 77.32 99 0 0
1852 SI MM 12:00:00 NR -12.22 77.32 2060 2060 _____P________ -1 -12.22 77.32 99 0 222
1852 SI MM 15:00:00 NR -12.24 77.30 2060 2060 _____P________ -1 -12.24 77.30 99 1 239
1852 SI MM 18:00:00 NR -12.27 77.24 2073 2073 _____P________ -1 -12.27 77.24 99 2 246
1852 SI MM 21:00:00 NR -12.31 77.12 2075 2075 _____P________ -1 -12.31 77.12 99 3 249
1852 SI MM 1852-01-02 00:00:00 NR -12.38 76.93 2090 2090 _____P________ -1 -12.38 76.93 99 5 250
1852 SI MM 03:00:00 NR -12.48 76.66 2106 2106 _____P________ -1 -12.48 76.66 99 7 251
1852 SI MM 06:00:00 NR -12.60 76.30 reunion 2126 2107 _____O________ -1 -12.60 76.30 99 9.90 9 251
1852 SI MM 09:00:00 NR -12.75 75.83 2092 2038 _____P________ -1 -12.75 75.83 99 11 252
1852 SI MM 12:00:00 NR -12.93 75.27 2038 1970 _____P________ -1 -12.93 75.27 99 12 252
1852 SI MM 15:00:00 NR -13.14 74.62 1960 1892 _____P________ -1 -13.14 74.62 99 14 252
1852 SI MM 18:00:00 NR -13.36 73.92 1878 1800 _____P________ -1 -13.36 73.92 99 15 252
1852 SI MM 21:00:00 NR -13.59 73.17 1800 1713 _____P________ -1 -13.59 73.17 99 16 253
1852 SI MM 1852-01-03 00:00:00 NR -13.82 72.39 1713 1620 _____P________ -1 -13.82 72.39 99 16 253
1852 SI MM 03:00:00 NR -14.06 71.59 1620 1534 _____P________ -1 -14.06 71.59 99 16 253
1852 SI MM 06:00:00 NR -14.30 70.80 reunion 1534 1456 _____O________ -1 -14.30 70.80 99 9.90 15 253
1852 SI MM 09:00:00 NR -14.51 70.07 1456 1380 _____P________ -1 -14.51 70.07 99 15 254
1852 SI MM 12:00:00 NR -14.72 69.32 1370 1293 _____P________ -1 -14.72 69.32 99 15 254
1852 SI MM 15:00:00 NR -14.93 68.57 1293 1216 _____P________ -1 -14.93 68.57 99 15 254
1852 SI MM 18:00:00 NR -15.14 67.82 1207 1131 _____P________ -1 -15.14 67.82 99 15 254
1852 SI MM 21:00:00 NR -15.35 67.07 1125 1049 _____P________ -1 -15.35 67.07 99 15 253
1852 SI MM 1852-01-04 00:00:00 NR -15.57 66.33 1040 964 _____P________ -1 -15.57 66.33 99 15 253
1852 SI MM 03:00:00 NR -15.78 65.61 964 888 _____P________ -1 -15.78 65.61 99 14 253
1852 SI MM 06:00:00 NR -16.00 64.90 reunion 888 822 _____O________ -1 -16.00 64.90 99 9.90 14 252
1852 SI MM 09:00:00 NR -16.21 64.23 813 747 _____P________ -1 -16.21 64.23 99 13 252
1852 SI MM 12:00:00 NR -16.42 63.57 747 682 _____P________ -1 -16.42 63.57 99 13 251
1852 SI MM 15:00:00 NR -16.64 62.93 674 609 _____P________ -1 -16.64 62.93 99 13 250
1852 SI MM 18:00:00 NR -16.86 62.30 602 538 _____P________ -1 -16.86 62.30 99 13 250
1852 SI MM 21:00:00 NR -17.08 61.68 538 475 _____P________ -1 -17.08 61.68 99 13 249
1852 SI MM 1852-01-05 00:00:00 NR -17.31 61.05 475 414 _____P________ -1 -17.31 61.05 99 13 248
1852 SI MM 03:00:00 NR -17.55 60.43 398 339 _____P________ -1 -17.55 60.43 99 13 248
1852 SI MM 06:00:00 NR -17.80 59.80 reunion 339 282 _____O________ -1 -17.80 59.80 99 9.90 13 248
1852 SI MM 09:00:00 NR -18.04 59.14 277 218 _____P________ -1 -18.04 59.14 99 14 249
1852 SI MM 12:00:00 NR -18.30 58.47 218 179 _____P________ -1 -18.30 58.47 99 14 248
1852 SI MM 15:00:00 NR -18.56 57.80 168 146 _____P________ -1 -18.56 57.80 99 14 247
1852 SI MM 18:00:00 NR -18.82 57.12 151 143 _____P________ -1 -18.82 57.12 99 14 247
1852 SI MM 21:00:00 NR -19.10 56.46 153 153 _____P________ -1 -19.10 56.46 99 14 246
1852 SI MM 1852-01-06 00:00:00 NR -19.39 55.79 179 145 _____P________ -1 -19.39 55.79 99 14 245
1852 SI MM 03:00:00 NR -19.69 55.14 146 133 _____P________ -1 -19.69 55.14 99 14 243
1852 SI MM 06:00:00 NR -20.00 54.50 reunion 139 137 _____O________ -1 -20.00 54.50 99 9.90 14 244
1852 SI MM 09:00:00 NR -20.29 53.82 170 170 _____P________ -1 -20.29 53.82 99 14 245
1852 SI MM 12:00:00 NR -20.59 53.13 225 225 _____P________ -1 -20.59 53.13 99 14 244
1852 SI MM 15:00:00 NR -20.91 52.47 281 281 _____P________ -1 -20.91 52.47 99 14 242
1852 SI MM 18:00:00 NR -21.24 51.82 339 297 _____P________ -1 -21.24 51.82 99 14 240
1852 SI MM 21:00:00 NR -21.59 51.22 297 254 _____P________ -1 -21.59 51.22 99 13 236
1852 SI MM 1852-01-07 00:00:00 NR -21.96 50.65 256 213 _____P________ -1 -21.96 50.65 99 13 232
1852 SI MM 03:00:00 NR -22.37 50.14 206 182 _____P________ -1 -22.37 50.14 99 12 226
1852 SI MM 06:00:00 NR -22.80 49.70 reunion 187 159 _____O________ -1 -22.80 49.70 99 9.90 12 218
1852 SI MM 09:00:00 NR -23.33 49.32 159 139 _____P________ -1 -23.33 49.32 99 13 210
1852 SI MM 12:00:00 NR -23.91 49.00 143 133 _____P________ -1 -23.91 49.00 99 13 204
1852 SI MM 15:00:00 NR -24.51 48.73 133 133 _____P________ -1 -24.51 48.73 99 13 200
1852 SI MM 18:00:00 NR -25.11 48.52 138 138 _____P________ -1 -25.11 48.52 99 12 196
1852 SI MM 21:00:00 NR -25.70 48.36 152 149 _____P________ -1 -25.70 48.36 99 12 193
1852 SI MM 1852-01-08 00:00:00 NR -26.26 48.24 180 180 _____P________ -1 -26.26 48.24 99 11 190
1852 SI MM 03:00:00 NR -26.77 48.16 224 219 _____P________ -1 -26.77 48.16 99 10 188
1852 SI MM 06:00:00 NR -27.20 48.10 reunion 258 258 _____O________ -1 -27.20 48.10 99 9.90 7 188
1852 SI MM 09:00:00 NR -27.50 48.03 283 283 _____P________ -1 -27.50 48.03 99 5 188
1852 SI MM 12:00:00 NR -27.74 48.01 303 303 _____P________ -1 -27.74 48.01 99 4 0
1852 SI MM 15:00:00 NR -27.92 48.01 324 324 _____P________ -1 -27.92 48.01 99 3 175
1852 SI MM 18:00:00 NR -28.06 48.04 345 345 _____P________ -1 -28.06 48.04 99 3 164
1852 SI MM 21:00:00 NR -28.17 48.10 359 359 _____P________ -1 -28.17 48.10 99 2 151
1852 SI MM 1852-01-09 00:00:00 NR -28.25 48.16 373 373 _____P________ -1 -28.25 48.16 99 2 143
1852 SI MM 03:00:00 NR -28.32 48.23 373 373 _____P________ -1 -28.32 48.23 99 2 140
1852 SI MM 06:00:00 NR -28.40 48.30 reunion 387 387 _____O________ -1 -28.40 48.30 99 9.90 2 144
1852 SI MM 09:00:00 NR -28.49 48.36 401 401 _____P________ -1 -28.49 48.36 99 2 148
1852 SI MM 12:00:00 NR -28.58 48.42 411 411 _____P________ -1 -28.58 48.42 99 2 154
1852 SI MM 15:00:00 NR -28.69 48.48 425 425 _____P________ -1 -28.69 48.48 99 2 157
1852 SI MM 18:00:00 NR -28.80 48.53 435 435 _____P________ -1 -28.80 48.53 99 2 160
1852 SI MM 21:00:00 NR -28.92 48.57 449 449 _____P________ -1 -28.92 48.57 99 3 162
1852 SI MM 1852-01-10 00:00:00 NR -29.04 48.62 460 460 _____P________ -1 -29.04 48.62 99 3 163
1852 SI MM 03:00:00 NR -29.17 48.66 484 484 _____P________ -1 -29.17 48.66 99 3 165
1852 SI MM 06:00:00 NR -29.30 48.70 reunion 494 _____O________ -1 -29.30 48.70 99 9.90 3 160